CheckWX is a tool to help pilots better visualize weather data.  It is not intended as a substitute for an official pre-flight weather briefing.

17:02:11 UTC

KYKM METAR
Yakima Air Terminal / McAllister Field Airport
Yakima, Washington, USA
Current

9 mins ago

KYKM 191653Z VRB05KT 10SM SCT075 16/08 A3003 RMK AO2 SLP169 T01610083
Observed
Sep-19 @ 16:53 UTC
Wind
  • Variable at 5 KTS
Visibility
10 SM
Flight Rules
VFR
Cloud Levels
  • Scattered at 7,500' AGL
Temperature
16°C / 61°F
Dewpoint
C / 46°F
Humidity
59%
Altimeter
30.03" Hg
Pressure
1016.92 hPa
Previous

1 hour ago

KYKM 191553Z COR 27005KT 10SM BKN080 13/08 A3003 RMK AO2 SLP170 T01330078
Observed
Sep-19 @ 15:53 UTC
Wind
  • 270° at 5 KTS
Visibility
10 SM
Flight Rules
VFR
Cloud Levels
  • Broken at 8,000' AGL
Temperature
13°C / 55°F
Dewpoint
C / 46°F
Humidity
72%
Altimeter
30.03" Hg
Pressure
1016.92 hPa
Previous

2 hours ago

KYKM 191453Z 29006KT 10SM SCT080 08/06 A3003 RMK AO2 SLP171 T00830061 53010
Observed
Sep-19 @ 14:53 UTC
Wind
  • 290° at 6 KTS
Visibility
10 SM
Flight Rules
VFR
Cloud Levels
  • Scattered at 8,000' AGL
Temperature
C / 46°F
Dewpoint
C / 43°F
Humidity
87%
Altimeter
30.03" Hg
Pressure
1016.92 hPa